CheckWX is a tool to help pilots better visualize weather data.  It is not intended as a substitute for an official pre-flight weather briefing.

04:15:19 UTC

RPLB TAF
Subic Bay International Airport
Olongapo City, Philippines
TAF RPLB 282300Z 2900/2924 04008KT 9999 FEW020 TX30/2907Z TN21/2922Z TEMPO 2900/2906 22010KT FEW020 SCT300

Jan-29@
00:00 UTC

Jan-29 @ 00:00 UTC

Jan-30@
00:00 UTC

Jan-30 @ 00:00 UTC

TAF RPLB 282300Z 2900/2924 04008KT 9999 FEW020 TX30/2907Z TN21/2922Z
Wind
  • 040° at 8 KTS
Cloud Levels
  • Few at 2,000' AGL

Jan-29@
00:00 UTC

Jan-29 @ 00:00 UTC

Jan-29@
06:00 UTC

Jan-29 @ 06:00 UTC

TEMPO 2900/2906 22010KT FEW020 SCT300

Temporary

Temporary Changes expected for less than half the time period

Wind
  • 220° at 10 KTS
Cloud Levels
  • Few at 2,000' AGL
  • Scattered at 30,000' AGL